createdAt,value
2018-06-11T00:00:39.017Z,87.89
2018-06-11T00:01:45.306Z,88.42
2018-06-11T00:02:51.544Z,88.32
2018-06-11T00:03:57.832Z,87.55
2018-06-11T00:05:03.462Z,87.60
2018-06-11T00:06:09.722Z,88.11
2018-06-11T00:07:15.594Z,88.24
2018-06-11T00:08:21.875Z,88.70
2018-06-11T00:09:28.125Z,88.38
2018-06-11T00:10:34.403Z,88.65
2018-06-11T00:11:40.710Z,88.63
2018-06-11T00:12:46.933Z,88.73
2018-06-11T00:13:53.628Z,88.17
2018-06-11T00:14:59.880Z,88.38
2018-06-11T00:16:06.104Z,88.12
2018-06-11T00:17:12.351Z,88.67
2018-06-11T00:18:21.544Z,88.57
2018-06-11T00:19:32.778Z,88.83
2018-06-11T00:20:38.934Z,89.17
2018-06-11T00:21:45.201Z,89.28
2018-06-11T00:22:51.435Z,88.79
2018-06-11T00:23:57.629Z,88.87
2018-06-11T00:25:03.201Z,88.88
2018-06-11T00:26:09.427Z,89.28
2018-06-11T00:27:15.695Z,90.24
2018-06-11T00:28:21.936Z,89.51
2018-06-11T00:29:28.194Z,90.02
2018-06-11T00:30:34.393Z,89.99
2018-06-11T00:31:40.867Z,90.29
2018-06-11T00:32:47.011Z,92.13
2018-06-11T00:33:52.995Z,91.85
2018-06-11T00:34:59.304Z,90.94
2018-06-11T00:36:05.319Z,91.26
2018-06-11T00:37:11.619Z,90.75
2018-06-11T00:38:17.854Z,90.62
2018-06-11T00:39:24.059Z,90.39
2018-06-11T00:40:30.234Z,90.65
2018-06-11T00:41:36.482Z,90.50
2018-06-11T00:42:42.714Z,90.35
2018-06-11T00:43:48.917Z,90.14
2018-06-11T00:44:54.850Z,89.90
2018-06-11T00:46:01.077Z,90.31
2018-06-11T00:47:07.321Z,90.79
2018-06-11T00:48:14.135Z,91.03
2018-06-11T00:49:20.382Z,90.87
2018-06-11T00:50:27.530Z,91.02
2018-06-11T00:51:33.757Z,91.12
2018-06-11T00:52:40.881Z,91.29
2018-06-11T00:53:47.072Z,91.04
2018-06-11T00:54:53.273Z,91.22
2018-06-11T00:56:04.782Z,91.21
2018-06-11T00:57:10.774Z,91.46
2018-06-11T00:58:17.026Z,91.25
2018-06-11T00:59:23.244Z,91.17
2018-06-11T01:00:29.166Z,91.20
2018-06-11T01:01:34.410Z,91.19
2018-06-11T01:02:40.420Z,90.62
2018-06-11T01:03:46.654Z,90.52
2018-06-11T01:04:52.963Z,90.97
2018-06-11T01:05:59.179Z,90.96
2018-06-11T01:07:05.434Z,91.31
2018-06-11T01:08:11.637Z,91.10
2018-06-11T01:09:17.844Z,90.66
2018-06-11T01:10:24.107Z,90.54
2018-06-11T01:11:30.310Z,90.21
2018-06-11T01:12:36.876Z,91.24
2018-06-11T01:13:43.060Z,90.89
2018-06-11T01:14:49.007Z,91.05
2018-06-11T01:15:55.217Z,91.17
2018-06-11T01:17:01.405Z,90.98
2018-06-11T01:18:07.379Z,91.36
2018-06-11T01:19:13.706Z,91.37
2018-06-11T01:20:20.010Z,91.74
2018-06-11T01:21:26.268Z,92.00
2018-06-11T01:22:32.845Z,93.35
2018-06-11T01:23:39.076Z,93.23
2018-06-11T01:24:45.286Z,93.43
2018-06-11T01:25:51.504Z,92.87
2018-06-11T01:26:57.717Z,92.20
2018-06-11T01:28:04.004Z,92.36
2018-06-11T01:29:10.195Z,93.81
2018-06-11T01:30:16.473Z,94.34
2018-06-11T01:31:22.795Z,94.19
2018-06-11T01:32:29.051Z,94.30
2018-06-11T01:33:35.365Z,94.22
2018-06-11T01:34:41.594Z,93.57
2018-06-11T01:35:47.539Z,93.47
2018-06-11T01:36:53.819Z,93.52
2018-06-11T01:38:00.056Z,93.82
2018-06-11T01:39:05.596Z,94.17
2018-06-11T01:40:11.828Z,93.82
2018-06-11T01:41:18.042Z,93.40
2018-06-11T01:42:24.217Z,92.81
2018-06-11T01:43:30.410Z,93.11
2018-06-11T01:44:36.652Z,92.93
2018-06-11T01:45:42.566Z,92.47
2018-06-11T01:46:48.755Z,92.73
2018-06-11T01:47:54.997Z,92.59
2018-06-11T01:49:01.311Z,92.90
2018-06-11T01:50:07.493Z,93.07
2018-06-11T01:51:13.688Z,93.45
2018-06-11T01:52:19.603Z,93.85
2018-06-11T01:53:25.554Z,94.63
2018-06-11T01:54:31.807Z,95.19
2018-06-11T01:55:38.619Z,94.60
2018-06-11T01:56:44.834Z,94.56
2018-06-11T01:57:51.025Z,94.06
2018-06-11T01:58:57.381Z,93.79
2018-06-11T02:00:03.200Z,94.09
2018-06-11T02:01:09.702Z,93.79
2018-06-11T02:02:15.983Z,93.48
2018-06-11T02:03:22.244Z,92.83
2018-06-11T02:04:28.532Z,93.05
2018-06-11T02:05:34.731Z,92.85
2018-06-11T02:06:41.904Z,93.16
2018-06-11T02:07:48.121Z,93.15
2018-06-11T02:08:54.371Z,93.77
2018-06-11T02:10:00.543Z,93.69
2018-06-11T02:11:06.719Z,94.06
2018-06-11T02:12:13.043Z,94.19
2018-06-11T02:13:19.299Z,94.13
2018-06-11T02:14:25.526Z,93.68
2018-06-11T02:15:31.923Z,94.90
2018-06-11T02:16:38.146Z,94.87
2018-06-11T02:17:44.295Z,94.76
2018-06-11T02:18:50.569Z,94.50
2018-06-11T02:19:56.792Z,94.48
2018-06-11T02:21:03.008Z,94.13
2018-06-11T02:22:09.241Z,94.49
2018-06-11T02:23:15.488Z,95.35
2018-06-11T02:24:21.754Z,95.25
2018-06-11T02:25:27.927Z,94.85
2018-06-11T02:26:34.409Z,96.69
2018-06-11T02:27:40.607Z,96.85
2018-06-11T02:28:47.082Z,96.52
2018-06-11T02:29:53.322Z,96.12
2018-06-11T02:30:59.566Z,96.12
2018-06-11T02:32:05.781Z,96.89
2018-06-11T02:33:12.066Z,96.85
2018-06-11T02:34:18.339Z,96.36
2018-06-11T02:35:24.554Z,95.60
2018-06-11T02:36:30.785Z,95.96
2018-06-11T02:37:37.044Z,96.18
2018-06-11T02:38:43.270Z,96.48
2018-06-11T02:39:49.502Z,95.94
2018-06-11T02:40:55.695Z,95.52
2018-06-11T02:42:01.997Z,95.34
2018-06-11T02:43:08.470Z,96.10
2018-06-11T02:44:14.799Z,96.11
2018-06-11T02:45:21.008Z,95.80
2018-06-11T02:46:27.225Z,95.88
2018-06-11T02:47:33.501Z,95.85
2018-06-11T02:48:39.705Z,95.44
2018-06-11T02:49:46.073Z,95.88
2018-06-11T02:50:52.293Z,96.07
2018-06-11T02:51:58.489Z,96.41
2018-06-11T02:53:04.392Z,97.10
2018-06-11T02:54:10.671Z,97.82
2018-06-11T02:55:20.432Z,96.97
2018-06-11T02:56:26.938Z,97.08
2018-06-11T02:57:33.141Z,96.88
2018-06-11T02:58:39.377Z,96.69
2018-06-11T02:59:45.693Z,96.77
2018-06-11T03:00:51.935Z,97.26
2018-06-11T03:01:58.163Z,96.85
2018-06-11T03:03:04.373Z,97.99
2018-06-11T03:04:10.648Z,97.38
2018-06-11T03:05:16.882Z,96.54
2018-06-11T03:06:23.094Z,96.04
2018-06-11T03:07:29.506Z,96.25
2018-06-11T03:08:35.709Z,96.86
2018-06-11T03:09:41.868Z,97.87
2018-06-11T03:10:48.240Z,97.75
2018-06-11T03:11:54.476Z,97.15
2018-06-11T03:13:00.752Z,97.19
2018-06-11T03:14:06.698Z,97.69
2018-06-11T03:15:12.639Z,97.20
2018-06-11T03:16:18.898Z,97.74
2018-06-11T03:17:25.635Z,97.58
2018-06-11T03:18:31.550Z,98.21
2018-06-11T03:19:37.836Z,97.74
2018-06-11T03:20:44.137Z,98.16
2018-06-11T03:21:50.475Z,98.43
2018-06-11T03:22:57.105Z,98.21
2018-06-11T03:24:03.525Z,97.84
2018-06-11T03:25:09.574Z,97.68
2018-06-11T03:26:15.753Z,97.00
2018-06-11T03:27:21.748Z,97.07
2018-06-11T03:28:28.231Z,97.41
2018-06-11T03:29:34.482Z,97.58
2018-06-11T03:30:40.432Z,97.29
2018-06-11T03:31:46.644Z,96.67
2018-06-11T03:32:52.914Z,96.31
2018-06-11T03:33:59.214Z,97.57
2018-06-11T03:35:05.177Z,97.94
2018-06-11T03:36:11.379Z,97.75
2018-06-11T03:37:17.595Z,97.84
2018-06-11T03:38:23.859Z,98.61
2018-06-11T03:39:30.107Z,98.20
2018-06-11T03:40:36.391Z,97.86
2018-06-11T03:41:42.688Z,98.17
2018-06-11T03:42:49.027Z,98.12
2018-06-11T03:43:55.353Z,98.18
2018-06-11T03:45:01.591Z,98.40
2018-06-11T03:46:07.981Z,98.56
2018-06-11T03:47:14.194Z,98.02
2018-06-11T03:48:21.457Z,98.02
2018-06-11T03:49:29.289Z,97.38
2018-06-11T03:50:35.568Z,96.97
2018-06-11T03:51:41.748Z,96.64
2018-06-11T03:52:47.977Z,96.66
2018-06-11T03:53:54.372Z,97.46
2018-06-11T03:55:00.577Z,97.31
2018-06-11T03:56:06.840Z,97.30
2018-06-11T03:57:13.118Z,96.91
2018-06-11T03:58:19.356Z,95.68
2018-06-11T03:59:26.116Z,95.49
2018-06-11T04:00:31.909Z,95.21
2018-06-11T04:01:38.163Z,95.35
2018-06-11T04:02:44.415Z,94.50
2018-06-11T04:03:50.712Z,94.44
2018-06-11T04:04:56.956Z,94.52
2018-06-11T04:06:03.362Z,93.98
2018-06-11T04:07:09.321Z,94.26
2018-06-11T04:08:15.567Z,94.99
2018-06-11T04:09:21.485Z,95.43
2018-06-11T04:10:27.812Z,95.39
2018-06-11T04:11:33.848Z,95.18
2018-06-11T04:12:41.407Z,96.21
2018-06-11T04:13:47.604Z,96.20
2018-06-11T04:14:53.807Z,95.76
2018-06-11T04:15:59.833Z,95.58
2018-06-11T04:17:06.044Z,95.98
2018-06-11T04:18:12.287Z,96.41
2018-06-11T04:19:18.512Z,96.47
2018-06-11T04:20:24.743Z,95.81
2018-06-11T04:21:31.249Z,96.16
2018-06-11T04:22:37.431Z,96.15
2018-06-11T04:23:44.322Z,95.98
2018-06-11T04:24:50.660Z,95.54
2018-06-11T04:25:57.183Z,95.46
2018-06-11T04:27:04.520Z,95.94
2018-06-11T04:28:10.824Z,95.21
2018-06-11T04:29:17.280Z,94.46
2018-06-11T04:30:23.615Z,94.07
2018-06-11T04:31:29.965Z,94.39
2018-06-11T04:32:36.238Z,93.67
2018-06-11T04:33:42.528Z,93.93
2018-06-11T04:34:48.779Z,94.61
2018-06-11T04:35:55.009Z,94.64
2018-06-11T04:37:01.532Z,95.41
2018-06-11T04:38:07.830Z,95.29
2018-06-11T04:39:14.033Z,94.97
2018-06-11T04:40:20.276Z,95.40
2018-06-11T04:41:26.797Z,95.94
2018-06-11T04:42:33.033Z,95.54
2018-06-11T04:43:39.221Z,94.01
2018-06-11T04:44:45.439Z,94.25
2018-06-11T04:45:51.822Z,94.71
2018-06-11T04:46:58.047Z,94.76
2018-06-11T04:48:04.253Z,94.21
2018-06-11T04:49:10.545Z,94.36
2018-06-11T04:50:16.769Z,94.83
2018-06-11T04:51:23.063Z,95.38
2018-06-11T04:52:29.282Z,95.29
2018-06-11T04:53:35.513Z,94.69
2018-06-11T04:54:41.766Z,94.47
2018-06-11T04:55:48.005Z,94.16
2018-06-11T04:56:54.297Z,94.55
2018-06-11T04:58:00.521Z,94.63
2018-06-11T04:59:06.816Z,94.35
2018-06-11T05:00:12.830Z,94.43
2018-06-11T05:01:18.824Z,94.18
2018-06-11T05:02:25.212Z,93.17
2018-06-11T05:03:31.478Z,92.94
2018-06-11T05:04:37.662Z,92.78
2018-06-11T05:05:43.869Z,92.66
2018-06-11T05:06:50.214Z,92.38
2018-06-11T05:07:56.446Z,92.24
2018-06-11T05:09:02.665Z,92.34
2018-06-11T05:10:09.000Z,92.74
2018-06-11T05:11:16.768Z,93.32
2018-06-11T05:12:23.251Z,92.79
2018-06-11T05:13:29.483Z,93.59
2018-06-11T05:14:35.898Z,93.41
2018-06-11T05:15:42.295Z,92.74
2018-06-11T05:16:48.703Z,93.06
2018-06-11T05:17:55.216Z,92.72
2018-06-11T05:19:01.708Z,92.90
2018-06-11T05:20:08.101Z,92.76
2018-06-11T05:21:14.660Z,92.66
2018-06-11T05:22:20.904Z,92.89
2018-06-11T05:23:27.144Z,93.18
2018-06-11T05:24:33.445Z,93.29
2018-06-11T05:25:41.064Z,92.58
2018-06-11T05:26:47.435Z,92.60
2018-06-11T05:27:53.712Z,91.63
2018-06-11T05:28:59.989Z,91.87
2018-06-11T05:30:06.247Z,91.37
2018-06-11T05:31:12.480Z,91.39
2018-06-11T05:32:18.734Z,91.05
2018-06-11T05:33:24.991Z,91.69
2018-06-11T05:34:31.237Z,91.80
2018-06-11T05:35:37.769Z,90.98
2018-06-11T05:36:43.952Z,91.61
2018-06-11T05:37:50.288Z,91.35
2018-06-11T05:38:56.546Z,90.76
2018-06-11T05:40:02.795Z,90.95
2018-06-11T05:41:09.072Z,91.12
2018-06-11T05:42:15.394Z,91.95
2018-06-11T05:43:21.604Z,92.78
2018-06-11T05:44:27.829Z,92.38
2018-06-11T05:45:34.101Z,92.77
2018-06-11T05:46:40.505Z,92.20
2018-06-11T05:47:46.533Z,91.93
2018-06-11T05:48:52.771Z,91.67
2018-06-11T05:49:58.976Z,92.05
2018-06-11T05:51:05.230Z,92.66
2018-06-11T05:52:11.492Z,91.83
2018-06-11T05:53:17.710Z,92.39
2018-06-11T05:54:23.971Z,92.52
2018-06-11T05:55:30.212Z,92.16
2018-06-11T05:56:36.408Z,92.12
2018-06-11T05:57:42.697Z,92.57
2018-06-11T05:58:48.933Z,92.59
2018-06-11T05:59:55.163Z,91.92
2018-06-11T06:01:01.435Z,91.60
2018-06-11T06:02:07.607Z,92.03
2018-06-11T06:03:14.628Z,92.13
2018-06-11T06:04:21.156Z,92.12
2018-06-11T06:05:27.405Z,91.88
2018-06-11T06:06:33.594Z,92.23
2018-06-11T06:07:40.877Z,92.19
2018-06-11T06:08:47.294Z,91.57
2018-06-11T06:09:54.297Z,91.39
2018-06-11T06:11:00.520Z,91.11
2018-06-11T06:12:06.777Z,90.90
2018-06-11T06:13:13.060Z,91.60
2018-06-11T06:14:19.336Z,91.54
2018-06-11T06:15:25.740Z,91.48
2018-06-11T06:16:31.950Z,91.53
2018-06-11T06:17:38.195Z,91.45
2018-06-11T06:18:44.398Z,90.69
2018-06-11T06:19:50.935Z,89.81
2018-06-11T06:20:57.239Z,90.45
2018-06-11T06:22:03.434Z,90.43
2018-06-11T06:23:09.690Z,89.73
2018-06-11T06:24:15.994Z,88.75
2018-06-11T06:25:22.228Z,89.00
2018-06-11T06:26:28.471Z,89.17
2018-06-11T06:27:34.747Z,90.31
2018-06-11T06:28:40.653Z,89.88
2018-06-11T06:29:46.858Z,89.63
2018-06-11T06:30:53.153Z,89.42
2018-06-11T06:31:59.383Z,90.03
2018-06-11T06:33:05.260Z,89.65
2018-06-11T06:34:11.795Z,89.42
2018-06-11T06:35:18.242Z,89.16
2018-06-11T06:36:24.115Z,90.17
2018-06-11T06:37:30.372Z,89.41
2018-06-11T06:38:36.588Z,88.67
2018-06-11T06:39:42.879Z,88.87
2018-06-11T06:40:49.460Z,88.74
2018-06-11T06:41:55.887Z,88.94
2018-06-11T06:43:02.149Z,89.45
2018-06-11T06:44:08.011Z,89.15
2018-06-11T06:45:13.492Z,89.54
2018-06-11T06:46:19.734Z,89.24
2018-06-11T06:47:25.964Z,88.19
2018-06-11T06:48:32.211Z,88.19
2018-06-11T06:49:38.422Z,88.27
2018-06-11T06:50:44.715Z,88.84
2018-06-11T06:51:50.957Z,89.13
2018-06-11T06:52:57.223Z,89.09
2018-06-11T06:54:03.543Z,89.19
2018-06-11T06:55:09.554Z,89.40
2018-06-11T06:56:15.784Z,89.27
2018-06-11T06:57:22.239Z,89.94
2018-06-11T06:58:28.532Z,89.98
2018-06-11T06:59:35.666Z,89.93
2018-06-11T07:00:41.907Z,90.00
2018-06-11T07:01:48.187Z,89.83
2018-06-11T07:02:54.455Z,90.13
2018-06-11T07:04:00.674Z,90.53
2018-06-11T07:05:07.261Z,89.90
2018-06-11T07:06:13.507Z,89.45
2018-06-11T07:07:19.744Z,88.46
2018-06-11T07:08:26.080Z,88.34
2018-06-11T07:09:32.335Z,87.72
2018-06-11T07:10:38.591Z,87.72
2018-06-11T07:11:44.787Z,86.98
2018-06-11T07:12:50.999Z,86.49
2018-06-11T07:13:57.285Z,86.73
2018-06-11T07:15:03.509Z,85.76
2018-06-11T07:16:09.467Z,86.08
2018-06-11T07:17:15.728Z,85.82
2018-06-11T07:18:21.941Z,85.94
2018-06-11T07:19:28.189Z,85.68
2018-06-11T07:20:34.447Z,85.77
2018-06-11T07:21:40.698Z,86.21
2018-06-11T07:22:46.641Z,86.39
2018-06-11T07:23:52.850Z,86.83
2018-06-11T07:24:59.139Z,87.22
2018-06-11T07:26:05.359Z,86.91
2018-06-11T07:27:11.587Z,86.37
2018-06-11T07:28:18.008Z,86.91
2018-06-11T07:29:24.210Z,87.37
2018-06-11T07:30:30.516Z,86.69
2018-06-11T07:31:36.537Z,87.54
2018-06-11T07:32:42.714Z,87.46
2018-06-11T07:33:48.726Z,87.37
2018-06-11T07:34:55.009Z,87.02
2018-06-11T07:36:01.476Z,87.89
2018-06-11T07:37:07.730Z,87.75
2018-06-11T07:38:13.960Z,87.81
2018-06-11T07:39:20.160Z,88.09
2018-06-11T07:40:26.383Z,87.56
2018-06-11T07:41:36.544Z,88.29
2018-06-11T07:42:42.789Z,88.46
2018-06-11T07:43:49.095Z,88.91
2018-06-11T07:44:55.320Z,88.83
2018-06-11T07:46:01.547Z,89.12
2018-06-11T07:47:07.743Z,88.68
2018-06-11T07:48:14.007Z,88.90
2018-06-11T07:49:20.239Z,88.75
2018-06-11T07:50:26.427Z,89.17
2018-06-11T07:51:32.374Z,88.48
2018-06-11T07:52:38.559Z,88.46
2018-06-11T07:53:44.803Z,88.67
2018-06-11T07:54:51.458Z,88.31
2018-06-11T07:55:57.734Z,88.46
2018-06-11T07:57:03.590Z,88.32
2018-06-11T07:58:09.818Z,88.24
2018-06-11T07:59:16.062Z,88.02
2018-06-11T08:00:22.314Z,88.34
2018-06-11T08:01:28.575Z,87.74
2018-06-11T08:02:34.780Z,87.66
2018-06-11T08:03:41.074Z,87.33
2018-06-11T08:04:47.316Z,87.44
2018-06-11T08:05:53.582Z,87.89
2018-06-11T08:06:59.801Z,87.51
2018-06-11T08:08:05.409Z,87.23
2018-06-11T08:09:11.300Z,87.49
2018-06-11T08:10:17.570Z,87.10
2018-06-11T08:11:23.755Z,88.53
2018-06-11T08:12:29.669Z,87.31
2018-06-11T08:13:35.963Z,86.96
2018-06-11T08:14:42.162Z,87.30
2018-06-11T08:15:48.405Z,86.68
2018-06-11T08:16:54.649Z,86.60
2018-06-11T08:18:00.893Z,85.99
2018-06-11T08:19:06.771Z,85.94
2018-06-11T08:20:13.032Z,85.05
2018-06-11T08:21:19.315Z,84.43
2018-06-11T08:22:25.532Z,84.57
2018-06-11T08:23:31.759Z,84.75
2018-06-11T08:24:37.988Z,84.08
2018-06-11T08:25:44.160Z,83.47
2018-06-11T08:26:50.345Z,83.81
2018-06-11T08:27:56.546Z,83.90
2018-06-11T08:29:02.768Z,83.46
2018-06-11T08:30:08.889Z,83.80
2018-06-11T08:31:15.349Z,83.88
2018-06-11T08:32:21.456Z,83.35
2018-06-11T08:33:27.713Z,84.36
2018-06-11T08:34:33.932Z,84.11
2018-06-11T08:35:40.282Z,84.13
2018-06-11T08:36:46.554Z,83.87
2018-06-11T08:37:52.835Z,82.48
2018-06-11T08:38:59.028Z,82.19
2018-06-11T08:40:04.668Z,81.61
2018-06-11T08:41:10.908Z,82.25
2018-06-11T08:42:17.110Z,80.72
2018-06-11T08:43:23.355Z,81.65
2018-06-11T08:44:29.528Z,81.01
2018-06-11T08:45:35.782Z,81.23
2018-06-11T08:46:41.644Z,80.97
2018-06-11T08:47:47.561Z,80.07
2018-06-11T08:48:53.788Z,80.45
2018-06-11T08:50:00.084Z,80.80
2018-06-11T08:51:06.373Z,80.48
2018-06-11T08:52:12.400Z,80.83
2018-06-11T08:53:18.673Z,81.54
2018-06-11T08:54:25.128Z,80.84
2018-06-11T08:55:31.469Z,80.21
2018-06-11T08:56:37.414Z,78.71
2018-06-11T08:57:43.649Z,78.80
2018-06-11T08:58:49.884Z,79.58
2018-06-11T08:59:56.209Z,78.59
2018-06-11T09:01:02.675Z,77.87
2018-06-11T09:02:08.866Z,77.28
2018-06-11T09:03:15.196Z,78.21
2018-06-11T09:04:21.679Z,77.70
2018-06-11T09:05:27.944Z,78.15
2018-06-11T09:06:34.140Z,78.26
2018-06-11T09:07:40.454Z,79.36
2018-06-11T09:08:46.651Z,80.33
2018-06-11T09:09:52.901Z,80.02
2018-06-11T09:10:59.160Z,79.49
2018-06-11T09:12:04.999Z,78.54
2018-06-11T09:13:11.230Z,78.97
2018-06-11T09:14:17.430Z,79.23
2018-06-11T09:15:23.679Z,79.05
2018-06-11T09:16:29.880Z,79.72
2018-06-11T09:17:36.053Z,78.40
2018-06-11T09:18:42.280Z,78.08
2018-06-11T09:19:48.492Z,78.28
2018-06-11T09:20:54.840Z,77.97
2018-06-11T09:22:01.069Z,78.49
2018-06-11T09:23:07.975Z,78.29
2018-06-11T09:24:14.192Z,77.41
2018-06-11T09:25:20.462Z,78.68
2018-06-11T09:26:26.682Z,77.88
2018-06-11T09:27:32.695Z,77.16
2018-06-11T09:28:38.903Z,75.16
2018-06-11T09:29:45.254Z,75.59
2018-06-11T09:30:51.292Z,76.32
2018-06-11T09:31:57.525Z,76.58
2018-06-11T09:33:03.738Z,75.20
2018-06-11T09:34:09.959Z,74.96
2018-06-11T09:35:15.961Z,73.87
2018-06-11T09:36:22.461Z,74.94
2018-06-11T09:37:28.721Z,75.53
2018-06-11T09:38:35.016Z,75.12
2018-06-11T09:39:41.255Z,74.07
2018-06-11T09:40:47.221Z,73.45
2018-06-11T09:41:53.446Z,74.48
2018-06-11T09:42:59.677Z,72.87
2018-06-11T09:44:05.263Z,74.87
2018-06-11T09:45:11.734Z,74.20
2018-06-11T09:46:17.992Z,74.61
2018-06-11T09:47:24.326Z,75.15
2018-06-11T09:48:30.582Z,73.48
2018-06-11T09:49:36.803Z,73.29
2018-06-11T09:50:43.068Z,74.29
2018-06-11T09:51:49.381Z,73.01
2018-06-11T09:52:55.591Z,74.05
2018-06-11T09:54:01.868Z,73.82
2018-06-11T09:55:07.826Z,73.74
2018-06-11T09:56:14.098Z,74.33
2018-06-11T09:57:20.332Z,73.13
2018-06-11T09:58:26.601Z,72.73
2018-06-11T09:59:32.834Z,72.10
2018-06-11T10:00:39.130Z,71.44
2018-06-11T10:01:45.344Z,73.08
2018-06-11T10:02:51.599Z,71.75
2018-06-11T10:03:58.009Z,71.20
2018-06-11T10:05:04.295Z,71.00
2018-06-11T10:06:10.500Z,69.91
2018-06-11T10:07:17.535Z,72.45
2018-06-11T10:08:23.764Z,70.31
2018-06-11T10:09:30.028Z,70.71
2018-06-11T10:10:35.987Z,70.77
2018-06-11T10:11:42.566Z,71.56
2018-06-11T10:12:48.959Z,72.83
2018-06-11T10:13:55.164Z,71.42
2018-06-11T10:15:01.464Z,70.27
2018-06-11T10:16:07.790Z,70.70
2018-06-11T10:17:14.002Z,70.52
2018-06-11T10:18:20.287Z,70.81
2018-06-11T10:19:26.494Z,72.12
2018-06-11T10:20:32.355Z,70.52
2018-06-11T10:21:38.634Z,71.07
2018-06-11T10:22:44.886Z,69.21
2018-06-11T10:23:51.102Z,69.61
2018-06-11T10:24:57.418Z,69.70
2018-06-11T10:26:03.818Z,69.84
2018-06-11T10:27:10.070Z,67.37
2018-06-11T10:28:16.320Z,67.36
2018-06-11T10:29:22.568Z,66.32
2018-06-11T10:30:28.770Z,65.10
2018-06-11T10:31:35.029Z,66.45
2018-06-11T10:32:41.224Z,67.14
2018-06-11T10:33:47.546Z,65.19
2018-06-11T10:34:53.577Z,66.36
2018-06-11T10:35:59.790Z,69.08
2018-06-11T10:37:06.178Z,66.19
2018-06-11T10:38:12.449Z,67.48
2018-06-11T10:39:18.645Z,67.75
2018-06-11T10:40:24.856Z,66.81
2018-06-11T10:41:31.152Z,66.06
2018-06-11T10:42:37.451Z,65.78
2018-06-11T10:43:43.759Z,65.80
2018-06-11T10:44:50.004Z,65.58
2018-06-11T10:45:56.223Z,66.35
2018-06-11T10:47:02.536Z,66.34
2018-06-11T10:48:08.799Z,67.38
2018-06-11T10:49:15.019Z,65.38
2018-06-11T10:50:21.243Z,66.36
2018-06-11T10:51:27.702Z,65.61
2018-06-11T10:52:33.953Z,65.88
2018-06-11T10:53:40.179Z,66.01
2018-06-11T10:54:46.352Z,65.58
2018-06-11T10:55:52.642Z,66.70
2018-06-11T10:56:58.897Z,67.98
2018-06-11T10:58:05.218Z,68.01
2018-06-11T10:59:11.612Z,68.75
2018-06-11T11:00:17.962Z,67.42
2018-06-11T11:01:24.227Z,66.73
2018-06-11T11:02:30.644Z,67.60
2018-06-11T11:03:36.921Z,66.08
2018-06-11T11:04:43.126Z,66.16
2018-06-11T11:05:49.387Z,65.85
2018-06-11T11:06:55.659Z,67.68
2018-06-11T11:08:01.867Z,67.35
2018-06-11T11:09:08.101Z,66.30
2018-06-11T11:10:14.003Z,66.76
2018-06-11T11:11:20.318Z,65.31
2018-06-11T11:12:26.565Z,64.01
2018-06-11T11:13:32.816Z,64.85
2018-06-11T11:14:39.110Z,63.98
2018-06-11T11:15:45.340Z,63.57
2018-06-11T11:16:51.585Z,63.86
2018-06-11T11:17:57.774Z,61.00
2018-06-11T11:19:04.187Z,61.04
2018-06-11T11:20:10.548Z,62.60
2018-06-11T11:21:16.797Z,63.76
2018-06-11T11:22:23.081Z,63.09
2018-06-11T11:23:29.314Z,61.85
2018-06-11T11:24:35.592Z,60.93
2018-06-11T11:25:41.870Z,62.83
2018-06-11T11:26:48.172Z,62.60
2018-06-11T11:27:54.427Z,64.07
2018-06-11T11:29:00.608Z,63.72
2018-06-11T11:30:06.517Z,65.03
2018-06-11T11:31:12.849Z,63.61
2018-06-11T11:32:19.092Z,62.91
2018-06-11T11:33:25.325Z,63.92
2018-06-11T11:34:31.535Z,64.40
2018-06-11T11:35:37.712Z,63.00
2018-06-11T11:36:43.622Z,64.05
2018-06-11T11:37:49.858Z,62.88
2018-06-11T11:38:56.152Z,60.51
2018-06-11T11:40:02.323Z,61.22
2018-06-11T11:41:08.512Z,62.31
2018-06-11T11:42:14.719Z,62.70
2018-06-11T11:43:21.002Z,62.35
2018-06-11T11:44:27.411Z,61.16
2018-06-11T11:45:33.658Z,60.28
2018-06-11T11:46:39.887Z,62.00
2018-06-11T11:47:46.118Z,62.31
2018-06-11T11:48:53.246Z,60.29
2018-06-11T11:49:59.495Z,61.10
2018-06-11T11:51:05.440Z,59.58
2018-06-11T11:52:11.637Z,57.85
2018-06-11T11:53:18.001Z,58.07
2018-06-11T11:54:24.266Z,59.44
2018-06-11T11:55:30.482Z,61.36
2018-06-11T11:56:36.696Z,59.74
2018-06-11T11:57:42.914Z,59.09
2018-06-11T11:58:49.129Z,57.29
2018-06-11T11:59:55.372Z,59.69
2018-06-11T12:01:01.602Z,58.50
2018-06-11T12:02:07.856Z,59.79
2018-06-11T12:03:14.121Z,58.11
2018-06-11T12:04:20.355Z,58.49
2018-06-11T12:05:26.566Z,59.47
2018-06-11T12:06:32.789Z,58.46
2018-06-11T12:07:38.906Z,57.28
2018-06-11T12:08:45.196Z,58.58
2018-06-11T12:09:51.773Z,57.94
2018-06-11T12:10:58.050Z,56.84
2018-06-11T12:12:04.264Z,58.38
2018-06-11T12:13:10.470Z,57.63
2018-06-11T12:14:16.707Z,58.45
2018-06-11T12:15:22.949Z,59.24
2018-06-11T12:16:29.303Z,57.70
2018-06-11T12:17:35.509Z,56.49
2018-06-11T12:18:41.755Z,57.29
2018-06-11T12:19:47.996Z,56.39
2018-06-11T12:20:54.255Z,55.79
2018-06-11T12:22:00.541Z,56.26
2018-06-11T12:23:06.765Z,58.36
2018-06-11T12:24:13.000Z,58.03
2018-06-11T12:25:19.018Z,56.95
2018-06-11T12:26:24.603Z,56.80
2018-06-11T12:27:30.817Z,57.91
2018-06-11T12:28:36.792Z,58.63
2018-06-11T12:29:42.967Z,56.90
2018-06-11T12:30:49.209Z,57.03
2018-06-11T12:31:55.127Z,57.36
2018-06-11T12:33:01.101Z,56.31
2018-06-11T12:34:06.984Z,56.00
2018-06-11T12:35:13.211Z,53.87
2018-06-11T12:36:19.435Z,53.91
2018-06-11T12:37:25.744Z,52.89
2018-06-11T12:38:31.669Z,52.25
2018-06-11T12:39:37.627Z,51.48
2018-06-11T12:40:43.914Z,51.63
2018-06-11T12:41:50.220Z,53.80
2018-06-11T12:42:56.319Z,53.30
2018-06-11T12:44:02.432Z,55.60
2018-06-11T12:45:08.340Z,56.34
2018-06-11T12:46:14.311Z,55.10
2018-06-11T12:47:19.935Z,54.98
2018-06-11T12:48:25.904Z,54.41
2018-06-11T12:49:32.120Z,55.25
2018-06-11T12:50:38.053Z,54.20
2018-06-11T12:51:43.933Z,54.35
2018-06-11T12:52:49.895Z,54.78
2018-06-11T12:53:56.012Z,54.06
2018-06-11T12:55:02.187Z,56.34
2018-06-11T12:56:08.179Z,54.00
2018-06-11T12:57:14.125Z,55.12
2018-06-11T12:58:20.152Z,52.55
2018-06-11T12:59:26.120Z,53.70
2018-06-11T13:00:32.012Z,52.10
2018-06-11T13:01:37.962Z,55.37
2018-06-11T13:02:43.916Z,54.32
2018-06-11T13:03:49.923Z,51.92
2018-06-11T13:04:55.810Z,51.47
2018-06-11T13:06:01.829Z,51.89
2018-06-11T13:07:07.740Z,52.58
2018-06-11T13:08:13.731Z,52.22
2018-06-11T13:09:19.655Z,52.68
2018-06-11T13:10:25.606Z,51.55
2018-06-11T13:11:31.856Z,50.36
2018-06-11T13:12:37.817Z,50.86
2018-06-11T13:13:43.795Z,50.02
2018-06-11T13:14:50.023Z,51.13
2018-06-11T13:15:56.177Z,51.95
2018-06-11T13:17:02.113Z,53.08
2018-06-11T13:18:07.984Z,52.84
2018-06-11T13:19:13.945Z,54.19
2018-06-11T13:20:19.891Z,53.42
2018-06-11T13:21:25.777Z,53.08
2018-06-11T13:22:31.721Z,53.67
2018-06-11T13:23:37.615Z,52.97
2018-06-11T13:24:43.560Z,52.37
2018-06-11T13:25:49.590Z,52.09
2018-06-11T13:26:55.470Z,53.57
2018-06-11T13:28:01.392Z,51.02
2018-06-11T13:29:07.721Z,52.37
2018-06-11T13:30:13.679Z,50.72
2018-06-11T13:31:19.597Z,51.35
2018-06-11T13:32:25.558Z,49.50
2018-06-11T13:33:31.303Z,49.61
2018-06-11T13:34:37.283Z,50.26
2018-06-11T13:35:43.176Z,50.17
2018-06-11T13:36:49.355Z,51.14
2018-06-11T13:37:55.271Z,52.63
2018-06-11T13:39:01.191Z,52.30
2018-06-11T13:40:06.885Z,51.95
2018-06-11T13:41:12.869Z,51.90
2018-06-11T13:42:18.536Z,51.68
2018-06-11T13:43:24.480Z,50.49
2018-06-11T13:44:30.198Z,50.62
2018-06-11T13:45:36.091Z,50.45
2018-06-11T13:46:42.025Z,50.68
2018-06-11T13:47:47.939Z,51.48
2018-06-11T13:48:53.780Z,52.81
2018-06-11T13:49:59.717Z,50.00
2018-06-11T13:51:05.302Z,48.65
2018-06-11T13:52:11.276Z,48.93
2018-06-11T13:53:17.301Z,50.26
2018-06-11T13:54:23.293Z,49.73
2018-06-11T13:55:29.190Z,49.54
2018-06-11T13:56:35.076Z,51.33
2018-06-11T13:57:41.014Z,50.34
2018-06-11T13:58:46.934Z,52.87
2018-06-11T13:59:52.943Z,52.78
2018-06-11T14:00:59.155Z,49.64
2018-06-11T14:02:04.695Z,50.36
2018-06-11T14:03:10.645Z,50.33
2018-06-11T14:04:16.595Z,50.71
2018-06-11T14:05:22.471Z,50.47
2018-06-11T14:06:28.368Z,50.19
2018-06-11T14:07:34.284Z,49.54
2018-06-11T14:08:41.660Z,50.92
2018-06-11T14:09:51.069Z,50.57
2018-06-11T14:11:00.635Z,50.71
2018-06-11T14:12:08.720Z,50.17
2018-06-11T14:13:14.844Z,49.10